Time;durP1;ratioP1;P1;durP2;ratioP2;P2;SDS_P1;SDS_P2;PMS_P1;PMS_P2;Temp;Humidity;BMP_temperature;BMP_pressure;BME280_temperature;BME280_humidity;BME280_pressure;Samples;Min_cycle;Max_cycle;Signal;HPM_P1;HPM_P2
2022/09/08 00:00:09;;;;;;;20.15;7.95;;;;;;;;;;4936292;29;20055;-80
2022/09/08 00:02:55;;;;;;;13.70;7.90;;;;;;;;;;4936446;29;20036;-77
2022/09/08 00:06:05;;;;;;;14.90;7.82;;;;;;;;;;4936436;29;20056;-77
2022/09/08 00:08:51;;;;;;;16.70;8.82;;;;;;;;;;4935800;29;20402;-77
2022/09/08 00:11:40;;;;;;;12.55;8.20;;;;;;;;;;4936246;29;20055;-77
2022/09/08 00:14:25;;;;;;;11.43;7.85;;;;;;;;;;4936173;29;20052;-77
2022/09/08 00:17:11;;;;;;;13.02;8.25;;;;;;;;;;4921986;29;20040;-78
2022/09/08 00:19:56;;;;;;;12.55;7.90;;;;;;;;;;4936472;29;20402;-77
2022/09/08 00:22:42;;;;;;;12.82;8.57;;;;;;;;;;4942583;29;20047;-76
2022/09/08 00:25:27;;;;;;;14.63;8.73;;;;;;;;;;4942779;29;20474;-75
2022/09/08 00:28:13;;;;;;;12.75;7.80;;;;;;;;;;4936217;29;20394;-77
2022/09/08 00:31:00;;;;;;;12.75;8.52;;;;;;;;;;4942768;29;20390;-76
2022/09/08 00:33:45;;;;;;;11.57;7.95;;;;;;;;;;4936328;29;20081;-77
2022/09/08 00:36:31;;;;;;;12.23;7.70;;;;;;;;;;4936054;29;20044;-77
2022/09/08 00:39:16;;;;;;;13.40;7.70;;;;;;;;;;4942422;29;20060;-77
2022/09/08 00:42:03;;;;;;;13.02;7.43;;;;;;;;;;4936161;29;20494;-76
2022/09/08 00:44:50;;;;;;;10.65;7.47;;;;;;;;;;4935950;29;20044;-77
2022/09/08 00:47:41;;;;;;;11.73;7.70;;;;;;;;;;4935968;29;20052;-76
2022/09/08 00:50:28;;;;;;;11.85;7.78;;;;;;;;;;4937976;29;20040;-76
2022/09/08 00:53:16;;;;;;;11.63;7.40;;;;;;;;;;4939272;29;20055;-77
2022/09/08 00:56:05;;;;;;;12.50;7.95;;;;;;;;;;4946125;29;20397;-77
2022/09/08 00:58:51;;;;;;;12.25;8.10;;;;;;;;;;4939893;29;20051;-77
2022/09/08 01:01:38;;;;;;;10.90;7.85;;;;;;;;;;4939557;29;20052;-76
2022/09/08 01:04:24;;;;;;;9.65;7.55;;;;;;;;;;4939242;29;20161;-76
2022/09/08 01:13:45;;;;;;;13.18;7.95;;;;;;;;;;4939124;29;20051;-77
2022/09/08 01:16:41;;;;;;;10.50;7.72;;;;;;;;;;4945642;29;20048;-76
2022/09/08 01:19:31;;;;;;;14.93;7.68;;;;;;;;;;4939125;29;20044;-77
2022/09/08 01:22:17;;;;;;;15.07;8.05;;;;;;;;;;4939100;29;20055;-76
2022/09/08 01:25:37;;;;;;;11.93;8.60;;;;;;;;;;4938939;29;20043;-77
2022/09/08 01:28:34;;;;;;;12.50;7.45;;;;;;;;;;4938955;29;20039;-77
2022/09/08 01:31:19;;;;;;;15.43;8.07;;;;;;;;;;4938940;29;20401;-77
2022/09/08 01:34:06;;;;;;;12.00;7.65;;;;;;;;;;4938831;29;20048;-77
2022/09/08 01:36:51;;;;;;;10.23;7.80;;;;;;;;;;4938804;29;20047;-76
2022/09/08 01:39:36;;;;;;;11.75;8.05;;;;;;;;;;4938708;29;20055;-77
2022/09/08 01:42:22;;;;;;;13.68;8.15;;;;;;;;;;4938757;29;20044;-76
2022/09/08 01:45:08;;;;;;;11.48;7.70;;;;;;;;;;4938499;29;20398;-77
2022/09/08 01:47:54;;;;;;;10.88;7.75;;;;;;;;;;4938640;29;20052;-77
2022/09/08 01:50:40;;;;;;;13.35;8.32;;;;;;;;;;4938290;29;20048;-77
2022/09/08 01:53:26;;;;;;;13.63;7.95;;;;;;;;;;4938084;29;20043;-77
2022/09/08 01:56:11;;;;;;;11.32;8.35;;;;;;;;;;4938732;29;20477;-78
2022/09/08 01:58:56;;;;;;;17.27;8.05;;;;;;;;;;4938298;29;20051;-77
2022/09/08 02:01:42;;;;;;;11.30;7.75;;;;;;;;;;4944513;29;20040;-77
2022/09/08 02:04:27;;;;;;;12.32;7.60;;;;;;;;;;4938183;29;20482;-77
2022/09/08 02:07:13;;;;;;;11.73;7.70;;;;;;;;;;4938213;29;20437;-77
2022/09/08 02:09:59;;;;;;;13.05;7.88;;;;;;;;;;4938058;29;20047;-77
2022/09/08 02:12:44;;;;;;;9.50;7.22;;;;;;;;;;4938280;29;20051;-77
2022/09/08 02:15:30;;;;;;;11.68;7.93;;;;;;;;;;4938081;29;20051;-77
2022/09/08 02:18:16;;;;;;;10.93;7.85;;;;;;;;;;4944342;29;20048;-76
2022/09/08 02:21:06;;;;;;;9.98;7.50;;;;;;;;;;4938166;29;20035;-77
2022/09/08 02:23:52;;;;;;;13.15;8.27;;;;;;;;;;4944615;29;20052;-77
2022/09/08 02:26:40;;;;;;;14.05;7.43;;;;;;;;;;4944085;29;20044;-77
2022/09/08 02:29:26;;;;;;;11.57;7.80;;;;;;;;;;4937832;29;20043;-77
2022/09/08 02:32:12;;;;;;;12.35;7.75;;;;;;;;;;4937816;29;20044;-77
2022/09/08 02:34:57;;;;;;;13.32;8.23;;;;;;;;;;4937741;29;20051;-77
2022/09/08 02:37:43;;;;;;;15.43;8.00;;;;;;;;;;4937850;29;20043;-76
2022/09/08 02:40:28;;;;;;;12.55;7.80;;;;;;;;;;4937425;29;20040;-78
2022/09/08 02:43:14;;;;;;;14.52;8.55;;;;;;;;;;4943897;29;20048;-78
2022/09/08 02:46:07;;;;;;;15.68;8.55;;;;;;;;;;4938006;29;20048;-77
2022/09/08 02:48:53;;;;;;;13.82;8.30;;;;;;;;;;4937219;29;20043;-78
2022/09/08 02:51:39;;;;;;;13.25;7.90;;;;;;;;;;4937204;29;20043;-77
2022/09/08 02:54:24;;;;;;;12.00;8.18;;;;;;;;;;4937548;29;20502;-76
2022/09/08 02:57:10;;;;;;;14.80;7.95;;;;;;;;;;4943969;29;20048;-76
2022/09/08 02:59:55;;;;;;;17.63;8.40;;;;;;;;;;4943696;29;20051;-77
2022/09/08 03:02:41;;;;;;;10.93;7.88;;;;;;;;;;4944120;29;20043;-76
2022/09/08 03:05:27;;;;;;;14.32;7.68;;;;;;;;;;4939635;29;20052;-77
2022/09/08 03:08:12;;;;;;;11.48;7.93;;;;;;;;;;4939064;29;20043;-76
2022/09/08 03:10:58;;;;;;;15.82;8.50;;;;;;;;;;4939386;29;20047;-76
2022/09/08 03:13:43;;;;;;;11.98;8.13;;;;;;;;;;4938798;29;20043;-77
2022/09/08 03:16:29;;;;;;;12.75;8.32;;;;;;;;;;4940064;29;20043;-78
2022/09/08 03:19:14;;;;;;;16.60;8.20;;;;;;;;;;4939429;29;20044;-77
2022/09/08 03:22:00;;;;;;;15.85;8.63;;;;;;;;;;4946158;29;20052;-77
2022/09/08 03:24:46;;;;;;;12.07;8.32;;;;;;;;;;4944093;29;20047;-76
2022/09/08 03:27:31;;;;;;;11.40;8.07;;;;;;;;;;4937047;29;20051;-78
2022/09/08 03:30:18;;;;;;;12.07;8.40;;;;;;;;;;4936515;29;20044;-76
2022/09/08 03:33:03;;;;;;;12.05;8.10;;;;;;;;;;4942951;29;20047;-76
2022/09/08 03:35:49;;;;;;;15.80;8.35;;;;;;;;;;4936883;29;20043;-76
2022/09/08 03:38:35;;;;;;;11.07;7.45;;;;;;;;;;4942678;29;20112;-76
2022/09/08 03:41:21;;;;;;;10.65;7.70;;;;;;;;;;4936507;29;20051;-76
2022/09/08 03:44:08;;;;;;;10.73;8.35;;;;;;;;;;4936628;29;20040;-76
2022/09/08 03:46:53;;;;;;;18.40;8.23;;;;;;;;;;4942837;29;20051;-76
2022/09/08 03:49:39;;;;;;;14.55;8.55;;;;;;;;;;4936667;29;20477;-76
2022/09/08 03:52:25;;;;;;;13.43;8.52;;;;;;;;;;4936039;29;20413;-76
2022/09/08 03:55:12;;;;;;;16.15;8.18;;;;;;;;;;4943023;29;20378;-76
2022/09/08 03:57:59;;;;;;;14.80;8.23;;;;;;;;;;4936571;29;20047;-76
2022/09/08 04:00:44;;;;;;;17.15;9.00;;;;;;;;;;4936434;29;20053;-76
2022/09/08 04:03:30;;;;;;;13.00;8.70;;;;;;;;;;4935880;29;20047;-77
2022/09/08 04:06:16;;;;;;;14.32;8.32;;;;;;;;;;4935774;29;20055;-77
2022/09/08 04:09:01;;;;;;;14.27;7.95;;;;;;;;;;4942340;29;20044;-78
2022/09/08 04:11:48;;;;;;;11.93;9.00;;;;;;;;;;4936236;29;20043;-78
2022/09/08 04:14:33;;;;;;;13.10;8.27;;;;;;;;;;4936654;29;20398;-76
2022/09/08 04:17:20;;;;;;;12.43;8.32;;;;;;;;;;4935588;29;20040;-77
2022/09/08 04:20:06;;;;;;;11.60;9.02;;;;;;;;;;4935968;29;20059;-77
2022/09/08 04:22:53;;;;;;;14.85;8.40;;;;;;;;;;4921499;29;20049;-77
2022/09/08 04:25:39;;;;;;;12.82;8.50;;;;;;;;;;4938733;29;20047;-77
2022/09/08 04:28:24;;;;;;;15.30;8.95;;;;;;;;;;4939817;29;20578;-77
2022/09/08 04:31:12;;;;;;;14.27;9.18;;;;;;;;;;4939491;29;20048;-78
2022/09/08 04:33:58;;;;;;;20.27;8.80;;;;;;;;;;4946012;29;20051;-78
2022/09/08 04:36:44;;;;;;;11.85;8.68;;;;;;;;;;4931540;29;20051;-77
2022/09/08 04:39:31;;;;;;;14.18;8.65;;;;;;;;;;4939566;29;20493;-77
2022/09/08 04:42:16;;;;;;;12.77;8.05;;;;;;;;;;4939732;29;20397;-77
2022/09/08 04:45:01;;;;;;;12.20;7.82;;;;;;;;;;4939972;29;20069;-78
2022/09/08 04:47:47;;;;;;;10.30;7.43;;;;;;;;;;4939205;29;20044;-78
2022/09/08 04:50:33;;;;;;;9.98;7.32;;;;;;;;;;4939274;29;20490;-77
2022/09/08 04:53:18;;;;;;;10.90;7.95;;;;;;;;;;4938595;29;20048;-77
2022/09/08 04:56:07;;;;;;;9.90;7.57;;;;;;;;;;4938248;29;20560;-78
2022/09/08 04:58:53;;;;;;;11.55;7.47;;;;;;;;;;4946033;29;20051;-78
2022/09/08 05:01:39;;;;;;;12.95;7.68;;;;;;;;;;4939288;29;20057;-78
2022/09/08 05:04:25;;;;;;;16.00;10.60;;;;;;;;;;4939271;29;20051;-78
2022/09/08 05:07:11;;;;;;;21.83;14.68;;;;;;;;;;4939252;29;20061;-79
2022/09/08 05:09:57;;;;;;;26.77;16.85;;;;;;;;;;4939023;29;20047;-79
2022/09/08 05:12:42;;;;;;;18.17;13.02;;;;;;;;;;4945769;29;20039;-78
2022/09/08 05:15:29;;;;;;;23.83;13.90;;;;;;;;;;4945431;29;20048;-78
2022/09/08 05:18:14;;;;;;;17.45;11.32;;;;;;;;;;4945045;29;20060;-78
2022/09/08 05:21:00;;;;;;;13.75;9.07;;;;;;;;;;4939031;29;20048;-78
2022/09/08 05:23:48;;;;;;;14.13;9.88;;;;;;;;;;4939253;29;20489;-79
2022/09/08 05:26:34;;;;;;;14.88;9.88;;;;;;;;;;4938817;29;20048;-79
2022/09/08 05:29:22;;;;;;;14.60;8.80;;;;;;;;;;4938391;29;20056;-79
2022/09/08 05:32:07;;;;;;;16.77;9.93;;;;;;;;;;4938507;29;20056;-79
2022/09/08 05:34:53;;;;;;;15.52;9.07;;;;;;;;;;4938211;29;20043;-79
2022/09/08 05:37:39;;;;;;;13.93;9.00;;;;;;;;;;4945052;29;20489;-79
2022/09/08 05:40:24;;;;;;;15.75;10.07;;;;;;;;;;4938730;29;20048;-79
2022/09/08 05:43:10;;;;;;;16.83;11.18;;;;;;;;;;4938235;29;20056;-78
2022/09/08 05:45:55;;;;;;;18.00;11.05;;;;;;;;;;4938541;29;20055;-79
2022/09/08 05:48:41;;;;;;;18.42;10.98;;;;;;;;;;4938785;29;20043;-78
2022/09/08 05:51:27;;;;;;;18.60;11.50;;;;;;;;;;4943102;29;20047;-78
2022/09/08 05:54:12;;;;;;;18.58;11.90;;;;;;;;;;4938521;29;20048;-78
2022/09/08 05:56:57;;;;;;;17.80;10.82;;;;;;;;;;4938449;29;20051;-78
2022/09/08 05:59:43;;;;;;;15.50;11.18;;;;;;;;;;4938430;29;20055;-79
2022/09/08 06:02:29;;;;;;;16.33;10.57;;;;;;;;;;4938343;29;20482;-80
2022/09/08 06:05:14;;;;;;;20.08;11.73;;;;;;;;;;4938142;29;20043;-79
2022/09/08 06:08:00;;;;;;;18.40;11.88;;;;;;;;;;4938298;29;20043;-80
2022/09/08 06:10:51;;;;;;;18.25;10.48;;;;;;;;;;4937799;29;20055;-80
2022/09/08 06:13:38;;;;;;;18.30;11.27;;;;;;;;;;4945215;29;20047;-80
2022/09/08 06:16:24;;;;;;;16.13;10.00;;;;;;;;;;4938239;29;20047;-79
2022/09/08 06:19:11;;;;;;;16.65;9.55;;;;;;;;;;4938080;29;20039;-79
2022/09/08 06:21:57;;;;;;;13.95;9.60;;;;;;;;;;4938166;29;20043;-79
2022/09/08 06:24:42;;;;;;;12.68;9.25;;;;;;;;;;4937768;29;20391;-80
2022/09/08 06:27:44;;;;;;;11.43;8.48;;;;;;;;;;4937844;29;20048;-79
2022/09/08 06:30:28;;;;;;;13.90;9.30;;;;;;;;;;4943903;29;20043;-78
2022/09/08 06:33:15;;;;;;;12.05;9.00;;;;;;;;;;4937540;29;20077;-78
2022/09/08 06:36:36;;;;;;;16.30;9.35;;;;;;;;;;4943959;29;20047;-79
2022/09/08 06:39:44;;;;;;;17.83;9.50;;;;;;;;;;4944118;29;20047;-79
2022/09/08 06:42:51;;;;;;;15.40;8.75;;;;;;;;;;4937582;29;20040;-79
2022/09/08 06:45:41;;;;;;;16.00;8.45;;;;;;;;;;4937566;29;20051;-78
2022/09/08 06:48:34;;;;;;;16.52;8.90;;;;;;;;;;4936677;29;20039;-78
2022/09/08 06:51:32;;;;;;;14.80;8.80;;;;;;;;;;4937140;29;20048;-77
2022/09/08 06:54:30;;;;;;;13.25;7.93;;;;;;;;;;4937368;29;20490;-79
2022/09/08 06:57:41;;;;;;;15.60;8.20;;;;;;;;;;4943292;29;20039;-78
2022/09/08 07:00:36;;;;;;;9.75;7.47;;;;;;;;;;4937316;29;20049;-79
2022/09/08 07:03:50;;;;;;;9.40;7.60;;;;;;;;;;4937172;29;20040;-79
2022/09/08 07:06:53;;;;;;;12.30;7.38;;;;;;;;;;4924411;29;20055;-79
2022/09/08 07:10:08;;;;;;;13.10;7.68;;;;;;;;;;4937030;29;20481;-79
2022/09/08 07:13:18;;;;;;;14.25;8.77;;;;;;;;;;4937215;29;20048;-79
2022/09/08 07:16:20;;;;;;;17.83;7.93;;;;;;;;;;4943453;29;20043;-79
2022/09/08 07:19:16;;;;;;;9.25;7.00;;;;;;;;;;4937436;29;20055;-78
2022/09/08 07:22:10;;;;;;;9.38;5.78;;;;;;;;;;4936610;29;20044;-78
2022/09/08 07:25:21;;;;;;;11.23;7.32;;;;;;;;;;4936931;29;20043;-78
2022/09/08 07:28:12;;;;;;;9.13;6.38;;;;;;;;;;4943033;29;20051;-78
2022/09/08 07:31:00;;;;;;;12.57;6.50;;;;;;;;;;4943445;29;20040;-78
2022/09/08 07:33:49;;;;;;;10.98;6.28;;;;;;;;;;4938106;29;20493;-78
2022/09/08 07:36:48;;;;;;;8.00;6.40;;;;;;;;;;4937919;29;20044;-77
2022/09/08 07:39:43;;;;;;;7.45;6.10;;;;;;;;;;4938742;29;20052;-78
2022/09/08 07:42:30;;;;;;;9.85;6.05;;;;;;;;;;4937458;29;20051;-77
2022/09/08 07:45:16;;;;;;;10.75;6.47;;;;;;;;;;4936820;29;20055;-78
2022/09/08 07:48:16;;;;;;;7.32;5.65;;;;;;;;;;4936784;29;20048;-78
2022/09/08 07:51:10;;;;;;;8.40;5.47;;;;;;;;;;4928518;29;20039;-76
2022/09/08 07:54:07;;;;;;;;;;;;;;;;;;4937207;29;20044;-76
2022/09/08 07:57:09;;;;;;;14.65;5.38;;;;;;;;;;4936497;29;20265;-80
2022/09/08 08:00:15;;;;;;;7.47;5.00;;;;;;;;;;4936203;29;20417;-77
2022/09/08 08:03:09;;;;;;;10.52;5.70;;;;;;;;;;4936480;29;20055;-77
2022/09/08 08:05:58;;;;;;;9.10;5.68;;;;;;;;;;4936696;29;20048;-79
2022/09/08 08:09:23;;;;;;;11.52;5.68;;;;;;;;;;4936142;29;20036;-79
2022/09/08 08:12:20;;;;;;;10.15;5.95;;;;;;;;;;4936292;29;20035;-80
2022/09/08 08:15:06;;;;;;;7.50;5.25;;;;;;;;;;4936258;29;20052;-79
2022/09/08 08:18:14;;;;;;;10.13;5.32;;;;;;;;;;4936284;29;20047;-80
2022/09/08 08:21:28;;;;;;;10.65;6.60;;;;;;;;;;4936174;29;20482;-79
2022/09/08 08:24:55;;;;;;;7.95;5.82;;;;;;;;;;4936226;29;20051;-79
2022/09/08 08:28:05;;;;;;;12.18;6.20;;;;;;;;;;4928283;29;20043;-79
2022/09/08 08:31:25;;;;;;;8.43;5.88;;;;;;;;;;4935930;29;20486;-78
2022/09/08 08:34:33;;;;;;;9.40;6.28;;;;;;;;;;4942511;29;20051;-78
2022/09/08 08:37:23;;;;;;;9.13;5.50;;;;;;;;;;4936116;29;20035;-78
2022/09/08 08:40:22;;;;;;;8.18;5.68;;;;;;;;;;4936400;29;20051;-78
2022/09/08 08:43:36;;;;;;;8.82;5.20;;;;;;;;;;4935901;29;20051;-77
2022/09/08 08:46:40;;;;;;;10.98;5.80;;;;;;;;;;4935885;29;20052;-77
2022/09/08 08:50:00;;;;;;;13.50;5.63;;;;;;;;;;4936066;29;20056;-79
2022/09/08 08:53:19;;;;;;;11.07;6.07;;;;;;;;;;4935569;29;20413;-79
2022/09/08 08:56:23;;;;;;;9.20;5.43;;;;;;;;;;4935822;29;20051;-78
2022/09/08 08:59:38;;;;;;;9.48;5.88;;;;;;;;;;4927857;29;20051;-78
2022/09/08 09:02:41;;;;;;;8.65;5.72;;;;;;;;;;4931940;29;20394;-77
2022/09/08 09:05:36;;;;;;;7.47;5.10;;;;;;;;;;4934580;29;20056;-78
2022/09/08 09:08:56;;;;;;;7.68;5.47;;;;;;;;;;4935877;29;20040;-76
2022/09/08 09:12:14;;;;;;;8.05;5.13;;;;;;;;;;4937412;29;20047;-78
2022/09/08 09:15:36;;;;;;;10.15;5.07;;;;;;;;;;4935976;29;20506;-80
2022/09/08 09:18:59;;;;;;;11.10;5.28;;;;;;;;;;4938775;29;20043;-78
2022/09/08 09:21:54;;;;;;;5.45;3.97;;;;;;;;;;4939009;29;20064;-77
2022/09/08 09:24:46;;;;;;;;;;;;;;;;;;4939817;29;20477;-77
2022/09/08 09:27:45;;;;;;;6.00;4.95;;;;;;;;;;4938843;29;19915;-78
2022/09/08 09:30:47;;;;;;;8.00;4.88;;;;;;;;;;4939113;29;20040;-79
2022/09/08 09:33:51;;;;;;;10.93;4.75;;;;;;;;;;4945182;29;20048;-77
2022/09/08 09:36:40;;;;;;;11.17;6.87;;;;;;;;;;4939232;29;20044;-77
2022/09/08 09:39:50;;;;;;;8.00;5.60;;;;;;;;;;4938655;29;20413;-77
2022/09/08 09:42:54;;;;;;;11.57;5.88;;;;;;;;;;4938616;29;20060;-78
2022/09/08 09:45:49;;;;;;;10.77;6.17;;;;;;;;;;4938232;29;20052;-82
2022/09/08 09:48:46;;;;;;;9.35;5.10;;;;;;;;;;4939047;29;20052;-79
2022/09/08 09:51:31;;;;;;;6.20;4.50;;;;;;;;;;4938328;29;20056;-79
2022/09/08 09:54:32;;;;;;;8.95;4.90;;;;;;;;;;4938641;29;20051;-79
2022/09/08 09:57:40;;;;;;;9.05;4.28;;;;;;;;;;4944818;29;20059;-80
2022/09/08 10:00:31;;;;;;;8.93;4.32;;;;;;;;;;4938669;29;20498;-78
2022/09/08 10:03:54;;;;;;;11.18;4.38;;;;;;;;;;4944538;29;20135;-80
2022/09/08 10:07:16;;;;;;;6.30;3.58;;;;;;;;;;4938581;29;20052;-79
2022/09/08 10:10:01;;;;;;;8.68;4.28;;;;;;;;;;4938277;29;20406;-78
2022/09/08 10:13:05;;;;;;;5.65;3.95;;;;;;;;;;4938015;29;20048;-78
2022/09/08 10:16:14;;;;;;;11.50;4.28;;;;;;;;;;4937778;29;20496;-79
2022/09/08 10:19:13;;;;;;;6.72;4.15;;;;;;;;;;4938097;29;20039;-79
2022/09/08 10:22:04;;;;;;;6.60;4.57;;;;;;;;;;4938418;29;20473;-77
2022/09/08 10:25:11;;;;;;;9.15;4.57;;;;;;;;;;4938032;29;20056;-78
2022/09/08 10:28:22;;;;;;;6.45;4.03;;;;;;;;;;4937782;29;20059;-78
2022/09/08 10:31:17;;;;;;;10.27;4.40;;;;;;;;;;4937521;29;20043;-78
2022/09/08 10:34:08;;;;;;;;;;;;;;;;;;4938347;29;20052;-77
2022/09/08 10:37:04;;;;;;;7.60;4.57;;;;;;;;;;4944157;29;20364;-77
2022/09/08 10:40:08;;;;;;;5.70;4.43;;;;;;;;;;4937582;29;20044;-78
2022/09/08 10:43:08;;;;;;;8.52;4.53;;;;;;;;;;4937691;29;20048;-78
2022/09/08 10:46:19;;;;;;;6.57;4.57;;;;;;;;;;4937312;29;20040;-78
2022/09/08 10:49:14;;;;;;;7.35;4.60;;;;;;;;;;4937670;29;20059;-79
2022/09/08 10:52:25;;;;;;;8.25;5.07;;;;;;;;;;4936945;29;20055;-78
2022/09/08 10:55:33;;;;;;;8.13;5.45;;;;;;;;;;4943756;29;20048;-78
2022/09/08 10:58:38;;;;;;;11.63;5.18;;;;;;;;;;4937944;29;20048;-77
2022/09/08 11:01:50;;;;;;;;;;;;;;;;;;4937065;29;20047;-77
2022/09/08 11:05:14;;;;;;;10.55;5.10;;;;;;;;;;4936628;29;19919;-78
2022/09/08 11:08:03;;;;;;;9.95;5.03;;;;;;;;;;4936543;29;20047;-76
2022/09/08 11:11:15;;;;;;;8.88;4.68;;;;;;;;;;4935595;29;20055;-76
2022/09/08 11:14:05;;;;;;;8.55;4.93;;;;;;;;;;4936891;29;20055;-79
2022/09/08 11:16:59;;;;;;;8.93;5.10;;;;;;;;;;4936740;29;20043;-78
2022/09/08 11:19:57;;;;;;;7.43;5.25;;;;;;;;;;4937216;29;20495;-77
2022/09/08 11:23:09;;;;;;;8.82;5.38;;;;;;;;;;4937202;29;20044;-77
2022/09/08 11:26:30;;;;;;;10.98;5.25;;;;;;;;;;4922978;29;20055;-79
2022/09/08 11:29:17;;;;;;;8.52;5.03;;;;;;;;;;4943051;29;20075;-77
2022/09/08 11:32:25;;;;;;;9.55;4.63;;;;;;;;;;4936157;29;20047;-82
2022/09/08 11:35:33;;;;;;;5.60;4.60;;;;;;;;;;4936796;29;20056;-80
2022/09/08 11:38:30;;;;;;;8.45;4.60;;;;;;;;;;4936087;29;20413;-84
2022/09/08 11:41:53;;;;;;;9.30;5.00;;;;;;;;;;4921735;29;20059;-79
2022/09/08 11:44:47;;;;;;;9.85;4.93;;;;;;;;;;4936399;29;20052;-80
2022/09/08 11:48:00;;;;;;;10.48;5.13;;;;;;;;;;4942803;29;20044;-79
2022/09/08 11:51:21;;;;;;;8.38;5.13;;;;;;;;;;4935988;29;20498;-81
2022/09/08 11:54:27;;;;;;;6.72;4.50;;;;;;;;;;4920722;29;20051;-81
2022/09/08 11:57:40;;;;;;;7.28;4.40;;;;;;;;;;4936734;29;20044;-81
2022/09/08 12:00:44;;;;;;;6.22;4.60;;;;;;;;;;4936334;29;20406;-80
2022/09/08 12:03:55;;;;;;;12.60;5.32;;;;;;;;;;4936453;29;20051;-80
2022/09/08 12:07:07;;;;;;;7.97;4.13;;;;;;;;;;4928428;29;20048;-81
2022/09/08 12:10:21;;;;;;;9.57;5.10;;;;;;;;;;4936090;29;20410;-79
2022/09/08 12:13:35;;;;;;;9.20;4.68;;;;;;;;;;4936518;29;20043;-79
2022/09/08 12:16:33;;;;;;;8.98;4.80;;;;;;;;;;4942256;29;20482;-80
2022/09/08 12:19:48;;;;;;;12.73;5.38;;;;;;;;;;4936260;29;20482;-79
2022/09/08 12:22:51;;;;;;;11.65;5.53;;;;;;;;;;4936537;29;20393;-82
2022/09/08 12:25:46;;;;;;;11.77;5.22;;;;;;;;;;4938619;29;20056;-80
2022/09/08 12:28:51;;;;;;;9.05;4.88;;;;;;;;;;4937131;29;20055;-78
2022/09/08 12:32:11;;;;;;;8.10;4.65;;;;;;;;;;4937140;29;20052;-82
2022/09/08 12:35:12;;;;;;;7.47;5.03;;;;;;;;;;4936996;29;20074;-79
2022/09/08 12:38:16;;;;;;;9.07;4.88;;;;;;;;;;4936390;29;20052;-81
2022/09/08 12:41:35;;;;;;;6.30;5.05;;;;;;;;;;4936019;29;20044;-79
2022/09/08 12:44:42;;;;;;;8.00;4.38;;;;;;;;;;4935671;29;20494;-80
2022/09/08 12:48:09;;;;;;;7.47;4.35;;;;;;;;;;4939791;29;20060;-79
2022/09/08 12:51:31;;;;;;;8.73;4.75;;;;;;;;;;4912141;29;20048;-80
2022/09/08 12:55:14;;;;;;;9.48;4.78;;;;;;;;;;4910285;29;20409;-81
2022/09/08 12:58:01;;;;;;;8.05;4.93;;;;;;;;;;4899480;29;20060;-79
2022/09/08 13:00:57;;;;;;;8.27;5.13;;;;;;;;;;4899437;29;20539;-80
2022/09/08 13:03:43;;;;;;;14.63;5.03;;;;;;;;;;4936864;29;20481;-80
2022/09/08 13:06:28;;;;;;;9.65;4.82;;;;;;;;;;4939529;29;20478;-80
2022/09/08 13:09:26;;;;;;;8.30;4.45;;;;;;;;;;4939569;29;20059;-80
2022/09/08 13:12:37;;;;;;;11.40;4.47;;;;;;;;;;4924206;29;20044;-79
2022/09/08 13:15:32;;;;;;;6.13;4.47;;;;;;;;;;4925606;29;20043;-81
2022/09/08 13:18:39;;;;;;;9.32;5.22;;;;;;;;;;4939146;29;20390;-81
2022/09/08 13:21:40;;;;;;;8.63;4.75;;;;;;;;;;4938841;29;20486;-79
2022/09/08 13:24:58;;;;;;;8.55;4.88;;;;;;;;;;4938985;29;20052;-79
2022/09/08 13:28:15;;;;;;;8.70;4.70;;;;;;;;;;4945210;29;20043;-81
2022/09/08 13:31:16;;;;;;;8.25;4.97;;;;;;;;;;4945445;29;20485;-80
2022/09/08 13:34:52;;;;;;;12.77;5.05;;;;;;;;;;4938630;29;20051;-80
2022/09/08 13:37:44;;;;;;;8.48;4.50;;;;;;;;;;4938417;29;20055;-80
2022/09/08 13:41:04;;;;;;;9.23;4.63;;;;;;;;;;4937609;29;20418;-80
2022/09/08 13:44:33;;;;;;;9.65;4.90;;;;;;;;;;4938458;29;20060;-81
2022/09/08 13:47:56;;;;;;;6.43;4.18;;;;;;;;;;4916650;29;20478;-81
2022/09/08 13:50:56;;;;;;;9.02;4.40;;;;;;;;;;4939712;29;20111;-78
2022/09/08 13:54:23;;;;;;;10.68;4.80;;;;;;;;;;4945066;29;20052;-81
2022/09/08 13:57:24;;;;;;;8.73;3.92;;;;;;;;;;4945107;29;20052;-81
2022/09/08 14:00:13;;;;;;;6.93;4.25;;;;;;;;;;4946108;29;20048;-76
2022/09/08 14:03:05;;;;;;;8.15;5.18;;;;;;;;;;4938752;29;20490;-77
2022/09/08 14:05:52;;;;;;;8.48;4.65;;;;;;;;;;4944833;29;20052;-75
2022/09/08 14:08:48;;;;;;;9.52;4.40;;;;;;;;;;4938578;29;20044;-78
2022/09/08 14:11:33;;;;;;;12.07;4.88;;;;;;;;;;4939401;29;20040;-77
2022/09/08 14:14:28;;;;;;;5.45;4.10;;;;;;;;;;4945522;29;20040;-78
2022/09/08 14:17:20;;;;;;;12.73;4.43;;;;;;;;;;4938189;29;20493;-76
2022/09/08 14:20:18;;;;;;;6.28;4.28;;;;;;;;;;4946227;29;20047;-76
2022/09/08 14:23:22;;;;;;;7.72;4.05;;;;;;;;;;4939319;29;20051;-77
2022/09/08 14:26:13;;;;;;;6.80;4.10;;;;;;;;;;4939453;29;20165;-76
2022/09/08 14:29:25;;;;;;;6.57;4.25;;;;;;;;;;4938403;29;20036;-75
2022/09/08 14:32:48;;;;;;;8.75;4.80;;;;;;;;;;4940238;29;20060;-76
2022/09/08 14:35:46;;;;;;;7.55;4.30;;;;;;;;;;4928818;29;20051;-75
2022/09/08 14:38:42;;;;;;;8.60;4.20;;;;;;;;;;4937749;29;20059;-77
2022/09/08 14:41:41;;;;;;;10.05;4.60;;;;;;;;;;4937763;29;20044;-75
2022/09/08 14:45:00;;;;;;;11.32;4.95;;;;;;;;;;4939417;29;20128;-76
2022/09/08 14:47:52;;;;;;;7.53;4.20;;;;;;;;;;4938055;29;20048;-76
2022/09/08 14:50:56;;;;;;;8.00;3.88;;;;;;;;;;4938217;29;20040;-78
2022/09/08 14:53:57;;;;;;;9.32;4.47;;;;;;;;;;4937561;29;20048;-76
2022/09/08 14:57:01;;;;;;;6.70;4.40;;;;;;;;;;4944837;29;20040;-78
2022/09/08 15:00:11;;;;;;;;;;;;;;;;;;4939783;29;20502;-77
2022/09/08 15:03:00;;;;;;;7.75;4.47;;;;;;;;;;4939999;29;20086;-77
2022/09/08 15:05:52;;;;;;;10.48;4.68;;;;;;;;;;4939890;29;20055;-76
2022/09/08 15:08:39;;;;;;;9.27;4.97;;;;;;;;;;4937912;29;20043;-77
2022/09/08 15:11:34;;;;;;;11.70;5.05;;;;;;;;;;4944031;29;20056;-76
2022/09/08 15:14:31;;;;;;;11.25;6.07;;;;;;;;;;4936602;29;20052;-76
2022/09/08 15:17:26;;;;;;;10.77;5.32;;;;;;;;;;4937463;29;20047;-77
2022/09/08 15:20:28;;;;;;;11.93;5.10;;;;;;;;;;4939870;29;20039;-76
2022/09/08 15:23:31;;;;;;;11.32;5.03;;;;;;;;;;4939769;29;20406;-78
2022/09/08 15:26:34;;;;;;;6.97;4.80;;;;;;;;;;4939801;29;20577;-77
2022/09/08 15:29:35;;;;;;;9.98;5.05;;;;;;;;;;4943665;29;20047;-76
2022/09/08 15:32:37;;;;;;;9.15;4.90;;;;;;;;;;4937769;29;20043;-76
2022/09/08 15:35:28;;;;;;;13.55;5.15;;;;;;;;;;4939631;29;20043;-76
2022/09/08 15:38:33;;;;;;;9.82;5.15;;;;;;;;;;4945133;29;20055;-76
2022/09/08 15:41:21;;;;;;;13.98;5.40;;;;;;;;;;4936655;29;20481;-76
2022/09/08 15:44:24;;;;;;;9.80;5.32;;;;;;;;;;4939677;29;20043;-76
2022/09/08 15:47:31;;;;;;;10.85;5.47;;;;;;;;;;4937642;29;20055;-75
2022/09/08 15:50:43;;;;;;;9.48;5.18;;;;;;;;;;4926627;29;20060;-76
2022/09/08 15:53:54;;;;;;;11.07;5.93;;;;;;;;;;4921678;29;20060;-75
2022/09/08 15:57:07;;;;;;;10.43;5.45;;;;;;;;;;4937068;29;20055;-77
2022/09/08 16:00:13;;;;;;;15.00;5.60;;;;;;;;;;4945067;29;20047;-77
2022/09/08 16:03:01;;;;;;;8.82;4.93;;;;;;;;;;4937959;29;20482;-77
2022/09/08 16:05:51;;;;;;;13.02;5.57;;;;;;;;;;4936974;29;20067;-77
2022/09/08 16:08:46;;;;;;;12.88;5.88;;;;;;;;;;4938664;29;20056;-78
2022/09/08 16:11:37;;;;;;;16.25;6.50;;;;;;;;;;4937434;29;20044;-77
2022/09/08 16:14:55;;;;;;;21.52;9.85;;;;;;;;;;4936925;29;20059;-78
2022/09/08 16:18:06;;;;;;;31.08;12.18;;;;;;;;;;4943370;29;20056;-79
2022/09/08 16:20:58;;;;;;;26.05;11.68;;;;;;;;;;4943068;29;20514;-76
2022/09/08 16:24:05;;;;;;;21.30;9.68;;;;;;;;;;4941877;29;20039;-78
2022/09/08 16:27:12;;;;;;;22.85;9.95;;;;;;;;;;4947810;29;20051;-77
2022/09/08 16:30:08;;;;;;;21.33;8.98;;;;;;;;;;4949901;29;20043;-78
2022/09/08 16:33:12;;;;;;;14.65;7.55;;;;;;;;;;4946407;29;20073;-79
2022/09/08 16:36:13;;;;;;;13.70;8.23;;;;;;;;;;4944016;29;20047;-78
2022/09/08 16:39:21;;;;;;;17.60;7.85;;;;;;;;;;4943138;29;20056;-78
2022/09/08 16:42:13;;;;;;;18.02;7.90;;;;;;;;;;4941720;29;20055;-79
2022/09/08 16:44:59;;;;;;;16.08;7.22;;;;;;;;;;4943620;29;20044;-81
2022/09/08 16:48:05;;;;;;;10.55;6.75;;;;;;;;;;4952462;29;20047;-83
2022/09/08 16:51:12;;;;;;;12.57;6.88;;;;;;;;;;4946539;29;20051;-82
2022/09/08 16:54:19;;;;;;;11.73;6.03;;;;;;;;;;4938927;29;20056;-82
2022/09/08 16:57:32;;;;;;;15.73;6.25;;;;;;;;;;4924071;29;20060;-80
2022/09/08 17:00:24;;;;;;;13.18;6.80;;;;;;;;;;4938969;29;20056;-80
2022/09/08 17:03:17;;;;;;;13.30;7.22;;;;;;;;;;4939264;29;20047;-79
2022/09/08 17:06:18;;;;;;;16.83;7.40;;;;;;;;;;4938269;29;20047;-79
2022/09/08 17:09:13;;;;;;;12.40;7.40;;;;;;;;;;4937492;29;20055;-79
2022/09/08 17:12:12;;;;;;;;;;;;;;;;;;4939218;29;20043;-79
2022/09/08 17:15:07;;;;;;;25.08;12.10;;;;;;;;;;4938534;29;19918;-79
2022/09/08 17:18:01;;;;;;;;;;;;;;;;;;4939283;29;20048;-79
2022/09/08 17:21:23;;;;;;;18.40;9.85;;;;;;;;;;4937875;29;19922;-79
2022/09/08 17:24:19;;;;;;;26.02;11.02;;;;;;;;;;4937170;29;20059;-80
2022/09/08 17:27:16;;;;;;;26.70;11.02;;;;;;;;;;4937312;29;20047;-78
2022/09/08 17:30:18;;;;;;;27.58;11.38;;;;;;;;;;4938553;29;20047;-78
2022/09/08 17:33:14;;;;;;;25.40;11.20;;;;;;;;;;4938706;29;20051;-78
2022/09/08 17:36:22;;;;;;;18.90;7.93;;;;;;;;;;4938155;29;20402;-80